sensor_id;sensor_type;location;lat;lon;timestamp;P1;durP1;ratioP1;P2;durP2;ratioP2
21901;SDS011;11115;46.038;14.612;2023-04-07T00:01:30;13.93;;;3.00;;
21901;SDS011;11115;46.038;14.612;2023-04-07T00:04:03;5.93;;;2.33;;
21901;SDS011;11115;46.038;14.612;2023-04-07T00:06:47;5.93;;;2.57;;
21901;SDS011;11115;46.038;14.612;2023-04-07T00:09:17;5.77;;;2.50;;
21901;SDS011;11115;46.038;14.612;2023-04-07T00:11:51;8.47;;;2.47;;
21901;SDS011;11115;46.038;14.612;2023-04-07T00:14:30;5.37;;;2.33;;
21901;SDS011;11115;46.038;14.612;2023-04-07T00:17:02;4.65;;;2.92;;
21901;SDS011;11115;46.038;14.612;2023-04-07T00:19:34;5.95;;;2.30;;
21901;SDS011;11115;46.038;14.612;2023-04-07T00:22:04;3.85;;;2.28;;
21901;SDS011;11115;46.038;14.612;2023-04-07T00:24:43;6.87;;;2.40;;
21901;SDS011;11115;46.038;14.612;2023-04-07T00:27:21;4.40;;;2.20;;
21901;SDS011;11115;46.038;14.612;2023-04-07T00:29:55;4.00;;;2.17;;
21901;SDS011;11115;46.038;14.612;2023-04-07T00:32:32;3.73;;;2.23;;
21901;SDS011;11115;46.038;14.612;2023-04-07T00:35:10;3.60;;;2.23;;
21901;SDS011;11115;46.038;14.612;2023-04-07T00:37:53;8.55;;;2.67;;
21901;SDS011;11115;46.038;14.612;2023-04-07T00:40:22;6.20;;;4.00;;
21901;SDS011;11115;46.038;14.612;2023-04-07T00:42:51;7.57;;;3.33;;
21901;SDS011;11115;46.038;14.612;2023-04-07T00:45:21;7.75;;;2.50;;
21901;SDS011;11115;46.038;14.612;2023-04-07T00:47:54;11.80;;;2.97;;
21901;SDS011;11115;46.038;14.612;2023-04-07T00:50:24;7.22;;;2.67;;
21901;SDS011;11115;46.038;14.612;2023-04-07T00:53:02;7.57;;;2.80;;
21901;SDS011;11115;46.038;14.612;2023-04-07T00:55:38;5.90;;;2.77;;
21901;SDS011;11115;46.038;14.612;2023-04-07T00:58:30;5.00;;;2.10;;
21901;SDS011;11115;46.038;14.612;2023-04-07T01:01:06;6.38;;;2.70;;
21901;SDS011;11115;46.038;14.612;2023-04-07T01:03:56;4.80;;;1.87;;
21901;SDS011;11115;46.038;14.612;2023-04-07T01:06:43;7.00;;;1.53;;
21901;SDS011;11115;46.038;14.612;2023-04-07T01:09:41;4.20;;;2.53;;
21901;SDS011;11115;46.038;14.612;2023-04-07T01:13:00;7.13;;;2.20;;
21901;SDS011;11115;46.038;14.612;2023-04-07T01:15:20;4.13;;;2.00;;
21901;SDS011;11115;46.038;14.612;2023-04-07T01:18:12;4.80;;;2.40;;
21901;SDS011;11115;46.038;14.612;2023-04-07T01:21:03;4.53;;;2.40;;
21901;SDS011;11115;46.038;14.612;2023-04-07T01:26:28;6.10;;;3.00;;
21901;SDS011;11115;46.038;14.612;2023-04-07T01:32:27;4.03;;;2.87;;
21901;SDS011;11115;46.038;14.612;2023-04-07T01:35:09;2.73;;;1.83;;
21901;SDS011;11115;46.038;14.612;2023-04-07T01:37:44;3.23;;;2.10;;
21901;SDS011;11115;46.038;14.612;2023-04-07T01:40:18;3.00;;;1.77;;
21901;SDS011;11115;46.038;14.612;2023-04-07T01:42:55;4.27;;;1.30;;
21901;SDS011;11115;46.038;14.612;2023-04-07T01:45:33;3.80;;;1.90;;
21901;SDS011;11115;46.038;14.612;2023-04-07T01:48:06;5.93;;;2.10;;
21901;SDS011;11115;46.038;14.612;2023-04-07T01:50:39;5.93;;;2.47;;
21901;SDS011;11115;46.038;14.612;2023-04-07T01:53:09;3.23;;;1.90;;
21901;SDS011;11115;46.038;14.612;2023-04-07T01:55:54;2.67;;;1.90;;
21901;SDS011;11115;46.038;14.612;2023-04-07T01:58:39;3.90;;;2.00;;
21901;SDS011;11115;46.038;14.612;2023-04-07T02:01:15;3.13;;;2.00;;
21901;SDS011;11115;46.038;14.612;2023-04-07T02:03:53;5.53;;;2.40;;
21901;SDS011;11115;46.038;14.612;2023-04-07T02:06:49;2.73;;;2.20;;
21901;SDS011;11115;46.038;14.612;2023-04-07T02:09:34;2.90;;;2.10;;
21901;SDS011;11115;46.038;14.612;2023-04-07T02:12:10;6.43;;;2.17;;
21901;SDS011;11115;46.038;14.612;2023-04-07T02:14:55;3.97;;;2.03;;
21901;SDS011;11115;46.038;14.612;2023-04-07T02:17:28;5.23;;;2.00;;
21901;SDS011;11115;46.038;14.612;2023-04-07T02:20:10;3.27;;;1.83;;
21901;SDS011;11115;46.038;14.612;2023-04-07T02:22:42;5.73;;;2.47;;
21901;SDS011;11115;46.038;14.612;2023-04-07T02:25:24;6.50;;;2.07;;
21901;SDS011;11115;46.038;14.612;2023-04-07T02:28:11;4.30;;;2.07;;
21901;SDS011;11115;46.038;14.612;2023-04-07T02:30:45;8.43;;;2.50;;
21901;SDS011;11115;46.038;14.612;2023-04-07T02:33:18;4.53;;;2.90;;
21901;SDS011;11115;46.038;14.612;2023-04-07T02:35:57;5.93;;;1.77;;
21901;SDS011;11115;46.038;14.612;2023-04-07T02:38:28;5.00;;;2.03;;
21901;SDS011;11115;46.038;14.612;2023-04-07T02:41:03;7.03;;;2.40;;
21901;SDS011;11115;46.038;14.612;2023-04-07T02:43:44;4.13;;;1.80;;
21901;SDS011;11115;46.038;14.612;2023-04-07T02:46:13;3.77;;;1.93;;
21901;SDS011;11115;46.038;14.612;2023-04-07T02:49:05;7.63;;;2.47;;
21901;SDS011;11115;46.038;14.612;2023-04-07T02:51:39;8.67;;;3.07;;
21901;SDS011;11115;46.038;14.612;2023-04-07T02:54:09;6.65;;;3.20;;
21901;SDS011;11115;46.038;14.612;2023-04-07T02:56:42;5.27;;;2.50;;
21901;SDS011;11115;46.038;14.612;2023-04-07T02:59:18;7.03;;;3.00;;
21901;SDS011;11115;46.038;14.612;2023-04-07T03:01:50;4.80;;;2.80;;
21901;SDS011;11115;46.038;14.612;2023-04-07T03:04:21;3.73;;;2.47;;
21901;SDS011;11115;46.038;14.612;2023-04-07T03:06:53;6.88;;;2.92;;
21901;SDS011;11115;46.038;14.612;2023-04-07T03:09:25;7.27;;;2.43;;
21901;SDS011;11115;46.038;14.612;2023-04-07T03:11:57;3.67;;;2.42;;
21901;SDS011;11115;46.038;14.612;2023-04-07T03:14:34;6.80;;;2.30;;
21901;SDS011;11115;46.038;14.612;2023-04-07T03:17:11;2.80;;;2.17;;
21901;SDS011;11115;46.038;14.612;2023-04-07T03:19:44;5.20;;;2.43;;
21901;SDS011;11115;46.038;14.612;2023-04-07T03:22:20;4.70;;;2.33;;
21901;SDS011;11115;46.038;14.612;2023-04-07T03:24:52;5.50;;;2.50;;
21901;SDS011;11115;46.038;14.612;2023-04-07T03:27:26;7.73;;;2.53;;
21901;SDS011;11115;46.038;14.612;2023-04-07T03:29:56;2.70;;;2.05;;
21901;SDS011;11115;46.038;14.612;2023-04-07T03:32:29;3.90;;;2.27;;
21901;SDS011;11115;46.038;14.612;2023-04-07T03:34:59;3.23;;;2.40;;
21901;SDS011;11115;46.038;14.612;2023-04-07T03:37:29;3.97;;;2.30;;
21901;SDS011;11115;46.038;14.612;2023-04-07T03:40:13;4.95;;;2.00;;
21901;SDS011;11115;46.038;14.612;2023-04-07T03:42:46;7.93;;;2.50;;
21901;SDS011;11115;46.038;14.612;2023-04-07T03:45:17;8.47;;;3.33;;
21901;SDS011;11115;46.038;14.612;2023-04-07T03:47:51;4.87;;;1.77;;
21901;SDS011;11115;46.038;14.612;2023-04-07T03:50:50;3.27;;;2.20;;
21901;SDS011;11115;46.038;14.612;2023-04-07T03:53:22;7.70;;;2.42;;
21901;SDS011;11115;46.038;14.612;2023-04-07T03:55:53;2.78;;;2.22;;
21901;SDS011;11115;46.038;14.612;2023-04-07T03:58:47;2.43;;;2.07;;
21901;SDS011;11115;46.038;14.612;2023-04-07T04:01:28;4.13;;;2.73;;
21901;SDS011;11115;46.038;14.612;2023-04-07T04:04:11;4.13;;;2.50;;
21901;SDS011;11115;46.038;14.612;2023-04-07T04:06:43;5.33;;;3.17;;
21901;SDS011;11115;46.038;14.612;2023-04-07T04:09:24;5.93;;;2.83;;
21901;SDS011;11115;46.038;14.612;2023-04-07T04:11:58;6.67;;;3.47;;
21901;SDS011;11115;46.038;14.612;2023-04-07T04:14:31;6.67;;;2.90;;
21901;SDS011;11115;46.038;14.612;2023-04-07T04:17:07;5.77;;;2.73;;
21901;SDS011;11115;46.038;14.612;2023-04-07T04:19:44;8.90;;;2.90;;
21901;SDS011;11115;46.038;14.612;2023-04-07T04:22:25;6.20;;;2.60;;
21901;SDS011;11115;46.038;14.612;2023-04-07T04:24:59;5.40;;;2.33;;
21901;SDS011;11115;46.038;14.612;2023-04-07T04:30:16;9.73;;;2.13;;
21901;SDS011;11115;46.038;14.612;2023-04-07T04:32:58;6.00;;;3.13;;
21901;SDS011;11115;46.038;14.612;2023-04-07T04:35:41;6.40;;;2.35;;
21901;SDS011;11115;46.038;14.612;2023-04-07T04:38:24;5.07;;;2.47;;
21901;SDS011;11115;46.038;14.612;2023-04-07T04:41:04;5.20;;;2.60;;
21901;SDS011;11115;46.038;14.612;2023-04-07T04:43:37;6.20;;;3.33;;
21901;SDS011;11115;46.038;14.612;2023-04-07T04:46:20;5.50;;;2.50;;
21901;SDS011;11115;46.038;14.612;2023-04-07T04:48:54;7.70;;;3.03;;
21901;SDS011;11115;46.038;14.612;2023-04-07T04:51:27;12.23;;;3.57;;
21901;SDS011;11115;46.038;14.612;2023-04-07T04:54:07;6.23;;;3.10;;
21901;SDS011;11115;46.038;14.612;2023-04-07T04:56:44;13.57;;;4.03;;
21901;SDS011;11115;46.038;14.612;2023-04-07T04:59:17;11.27;;;5.10;;
21901;SDS011;11115;46.038;14.612;2023-04-07T05:02:01;6.60;;;3.63;;
21901;SDS011;11115;46.038;14.612;2023-04-07T05:04:43;9.10;;;4.70;;
21901;SDS011;11115;46.038;14.612;2023-04-07T05:07:20;7.30;;;4.00;;
21901;SDS011;11115;46.038;14.612;2023-04-07T05:09:57;8.80;;;3.37;;
21901;SDS011;11115;46.038;14.612;2023-04-07T05:12:30;6.23;;;3.07;;
21901;SDS011;11115;46.038;14.612;2023-04-07T05:15:06;4.73;;;3.23;;
21901;SDS011;11115;46.038;14.612;2023-04-07T05:17:39;10.33;;;4.17;;
21901;SDS011;11115;46.038;14.612;2023-04-07T05:20:13;13.43;;;5.27;;
21901;SDS011;11115;46.038;14.612;2023-04-07T05:22:47;14.70;;;7.10;;
21901;SDS011;11115;46.038;14.612;2023-04-07T05:25:26;16.37;;;8.30;;
21901;SDS011;11115;46.038;14.612;2023-04-07T05:28:01;16.07;;;6.93;;
21901;SDS011;11115;46.038;14.612;2023-04-07T05:30:35;13.07;;;6.90;;
21901;SDS011;11115;46.038;14.612;2023-04-07T05:33:10;17.17;;;6.63;;
21901;SDS011;11115;46.038;14.612;2023-04-07T05:35:56;12.60;;;5.63;;
21901;SDS011;11115;46.038;14.612;2023-04-07T05:38:30;16.40;;;5.97;;
21901;SDS011;11115;46.038;14.612;2023-04-07T05:41:19;14.33;;;5.33;;
21901;SDS011;11115;46.038;14.612;2023-04-07T05:46:21;19.23;;;5.07;;
21901;SDS011;11115;46.038;14.612;2023-04-07T05:48:56;12.33;;;4.37;;
21901;SDS011;11115;46.038;14.612;2023-04-07T05:51:46;8.70;;;3.93;;
21901;SDS011;11115;46.038;14.612;2023-04-07T05:54:16;7.53;;;3.40;;
21901;SDS011;11115;46.038;14.612;2023-04-07T05:56:50;5.87;;;3.53;;
21901;SDS011;11115;46.038;14.612;2023-04-07T05:59:23;9.40;;;3.77;;
21901;SDS011;11115;46.038;14.612;2023-04-07T06:01:55;12.77;;;4.97;;
21901;SDS011;11115;46.038;14.612;2023-04-07T06:04:25;11.37;;;4.27;;
21901;SDS011;11115;46.038;14.612;2023-04-07T06:06:56;12.23;;;4.50;;
21901;SDS011;11115;46.038;14.612;2023-04-07T06:09:28;8.65;;;3.97;;
21901;SDS011;11115;46.038;14.612;2023-04-07T06:11:56;12.77;;;5.07;;
21901;SDS011;11115;46.038;14.612;2023-04-07T06:14:32;6.70;;;4.00;;
21901;SDS011;11115;46.038;14.612;2023-04-07T06:17:03;11.80;;;4.65;;
21901;SDS011;11115;46.038;14.612;2023-04-07T06:19:37;10.80;;;3.97;;
21901;SDS011;11115;46.038;14.612;2023-04-07T06:22:14;6.83;;;3.57;;
21901;SDS011;11115;46.038;14.612;2023-04-07T06:24:42;9.60;;;4.10;;
21901;SDS011;11115;46.038;14.612;2023-04-07T06:27:13;6.63;;;3.08;;
21901;SDS011;11115;46.038;14.612;2023-04-07T06:29:51;9.87;;;4.43;;
21901;SDS011;11115;46.038;14.612;2023-04-07T06:32:26;14.27;;;3.40;;
21901;SDS011;11115;46.038;14.612;2023-04-07T06:34:58;6.30;;;3.47;;
21901;SDS011;11115;46.038;14.612;2023-04-07T06:37:29;12.93;;;3.40;;
21901;SDS011;11115;46.038;14.612;2023-04-07T06:40:04;7.90;;;2.90;;
21901;SDS011;11115;46.038;14.612;2023-04-07T06:42:35;7.50;;;3.43;;
21901;SDS011;11115;46.038;14.612;2023-04-07T06:45:22;10.20;;;3.70;;
21901;SDS011;11115;46.038;14.612;2023-04-07T06:47:53;10.45;;;3.67;;
21901;SDS011;11115;46.038;14.612;2023-04-07T06:50:27;11.03;;;3.93;;
21901;SDS011;11115;46.038;14.612;2023-04-07T06:53:01;6.37;;;3.67;;
21901;SDS011;11115;46.038;14.612;2023-04-07T06:55:33;13.23;;;4.05;;
21901;SDS011;11115;46.038;14.612;2023-04-07T06:58:09;12.17;;;4.37;;
21901;SDS011;11115;46.038;14.612;2023-04-07T07:00:41;6.60;;;3.67;;
21901;SDS011;11115;46.038;14.612;2023-04-07T07:03:16;21.87;;;4.43;;
21901;SDS011;11115;46.038;14.612;2023-04-07T07:05:47;6.40;;;4.00;;
21901;SDS011;11115;46.038;14.612;2023-04-07T07:08:18;8.73;;;3.90;;
21901;SDS011;11115;46.038;14.612;2023-04-07T07:10:49;8.18;;;4.57;;
21901;SDS011;11115;46.038;14.612;2023-04-07T07:16:06;12.73;;;4.43;;
21901;SDS011;11115;46.038;14.612;2023-04-07T07:18:44;16.00;;;5.10;;
21901;SDS011;11115;46.038;14.612;2023-04-07T07:21:16;9.95;;;4.40;;
21901;SDS011;11115;46.038;14.612;2023-04-07T07:23:51;8.73;;;4.73;;
21901;SDS011;11115;46.038;14.612;2023-04-07T07:26:21;9.47;;;4.60;;
21901;SDS011;11115;46.038;14.612;2023-04-07T07:28:54;11.97;;;4.90;;
21901;SDS011;11115;46.038;14.612;2023-04-07T07:31:25;18.42;;;5.53;;
21901;SDS011;11115;46.038;14.612;2023-04-07T07:33:54;9.57;;;4.73;;
21901;SDS011;11115;46.038;14.612;2023-04-07T07:36:40;17.23;;;4.60;;
21901;SDS011;11115;46.038;14.612;2023-04-07T07:39:11;16.50;;;5.07;;
21901;SDS011;11115;46.038;14.612;2023-04-07T07:41:44;11.73;;;4.67;;
21901;SDS011;11115;46.038;14.612;2023-04-07T07:44:15;11.57;;;5.13;;
21901;SDS011;11115;46.038;14.612;2023-04-07T07:47:04;9.73;;;4.30;;
21901;SDS011;11115;46.038;14.612;2023-04-07T07:49:35;11.20;;;3.90;;
21901;SDS011;11115;46.038;14.612;2023-04-07T07:52:05;10.93;;;4.13;;
21901;SDS011;11115;46.038;14.612;2023-04-07T07:54:44;8.33;;;4.00;;
21901;SDS011;11115;46.038;14.612;2023-04-07T07:57:20;11.77;;;3.93;;
21901;SDS011;11115;46.038;14.612;2023-04-07T07:59:52;8.93;;;4.30;;
21901;SDS011;11115;46.038;14.612;2023-04-07T08:02:43;10.90;;;4.97;;
21901;SDS011;11115;46.038;14.612;2023-04-07T08:05:18;9.57;;;3.70;;
21901;SDS011;11115;46.038;14.612;2023-04-07T08:07:48;12.40;;;5.03;;
21901;SDS011;11115;46.038;14.612;2023-04-07T08:10:26;11.53;;;3.87;;
21901;SDS011;11115;46.038;14.612;2023-04-07T08:12:58;6.80;;;3.60;;
21901;SDS011;11115;46.038;14.612;2023-04-07T08:15:32;9.00;;;3.97;;
21901;SDS011;11115;46.038;14.612;2023-04-07T08:18:13;7.20;;;4.18;;
21901;SDS011;11115;46.038;14.612;2023-04-07T08:20:41;8.00;;;4.30;;
21901;SDS011;11115;46.038;14.612;2023-04-07T08:23:19;6.60;;;3.23;;
21901;SDS011;11115;46.038;14.612;2023-04-07T08:25:54;4.03;;;2.80;;
21901;SDS011;11115;46.038;14.612;2023-04-07T08:28:23;8.60;;;3.00;;
21901;SDS011;11115;46.038;14.612;2023-04-07T08:30:53;7.60;;;3.13;;
21901;SDS011;11115;46.038;14.612;2023-04-07T08:33:30;7.43;;;3.13;;
21901;SDS011;11115;46.038;14.612;2023-04-07T08:36:04;12.97;;;2.97;;
21901;SDS011;11115;46.038;14.612;2023-04-07T08:38:36;6.57;;;2.67;;
21901;SDS011;11115;46.038;14.612;2023-04-07T08:41:10;9.37;;;3.10;;
21901;SDS011;11115;46.038;14.612;2023-04-07T08:43:43;4.33;;;2.30;;
21901;SDS011;11115;46.038;14.612;2023-04-07T08:46:24;5.37;;;2.80;;
21901;SDS011;11115;46.038;14.612;2023-04-07T08:48:54;5.80;;;2.73;;
21901;SDS011;11115;46.038;14.612;2023-04-07T08:51:27;5.67;;;3.20;;
21901;SDS011;11115;46.038;14.612;2023-04-07T08:54:14;5.20;;;3.00;;
21901;SDS011;11115;46.038;14.612;2023-04-07T08:56:50;5.37;;;2.27;;
21901;SDS011;11115;46.038;14.612;2023-04-07T08:59:25;3.03;;;2.13;;
21901;SDS011;11115;46.038;14.612;2023-04-07T09:01:55;5.22;;;2.83;;
21901;SDS011;11115;46.038;14.612;2023-04-07T09:04:27;5.67;;;2.73;;
21901;SDS011;11115;46.038;14.612;2023-04-07T09:07:10;5.23;;;3.03;;
21901;SDS011;11115;46.038;14.612;2023-04-07T09:09:41;10.73;;;3.10;;
21901;SDS011;11115;46.038;14.612;2023-04-07T09:12:13;4.70;;;2.80;;
21901;SDS011;11115;46.038;14.612;2023-04-07T09:14:41;4.80;;;2.60;;
21901;SDS011;11115;46.038;14.612;2023-04-07T09:17:12;6.73;;;2.77;;
21901;SDS011;11115;46.038;14.612;2023-04-07T09:19:42;6.47;;;2.65;;
21901;SDS011;11115;46.038;14.612;2023-04-07T09:22:13;6.37;;;3.33;;
21901;SDS011;11115;46.038;14.612;2023-04-07T09:24:48;7.17;;;3.23;;
21901;SDS011;11115;46.038;14.612;2023-04-07T09:27:25;4.83;;;2.77;;
21901;SDS011;11115;46.038;14.612;2023-04-07T09:30:12;4.30;;;2.70;;
21901;SDS011;11115;46.038;14.612;2023-04-07T09:32:53;6.87;;;2.60;;
21901;SDS011;11115;46.038;14.612;2023-04-07T09:35:28;6.03;;;3.67;;
21901;SDS011;11115;46.038;14.612;2023-04-07T09:38:05;8.63;;;3.83;;
21901;SDS011;11115;46.038;14.612;2023-04-07T09:40:47;5.23;;;3.33;;
21901;SDS011;11115;46.038;14.612;2023-04-07T09:43:24;6.63;;;3.53;;
21901;SDS011;11115;46.038;14.612;2023-04-07T09:46:05;5.57;;;3.13;;
21901;SDS011;11115;46.038;14.612;2023-04-07T09:48:59;11.20;;;3.80;;
21901;SDS011;11115;46.038;14.612;2023-04-07T09:51:51;9.60;;;3.97;;
21901;SDS011;11115;46.038;14.612;2023-04-07T09:54:38;4.00;;;2.73;;
21901;SDS011;11115;46.038;14.612;2023-04-07T09:57:12;5.13;;;2.90;;
21901;SDS011;11115;46.038;14.612;2023-04-07T09:59:44;9.60;;;3.05;;
21901;SDS011;11115;46.038;14.612;2023-04-07T10:02:18;6.80;;;3.07;;
21901;SDS011;11115;46.038;14.612;2023-04-07T10:07:36;5.63;;;2.83;;
21901;SDS011;11115;46.038;14.612;2023-04-07T10:10:13;8.53;;;3.50;;
21901;SDS011;11115;46.038;14.612;2023-04-07T10:12:45;7.50;;;3.03;;
21901;SDS011;11115;46.038;14.612;2023-04-07T10:15:29;5.63;;;2.20;;
21901;SDS011;11115;46.038;14.612;2023-04-07T10:18:04;6.30;;;2.80;;
21901;SDS011;11115;46.038;14.612;2023-04-07T10:20:45;3.23;;;2.20;;
21901;SDS011;11115;46.038;14.612;2023-04-07T10:23:31;3.67;;;2.40;;
21901;SDS011;11115;46.038;14.612;2023-04-07T10:26:05;3.92;;;2.63;;
21901;SDS011;11115;46.038;14.612;2023-04-07T10:28:40;3.93;;;2.77;;
21901;SDS011;11115;46.038;14.612;2023-04-07T10:31:19;5.90;;;2.17;;
21901;SDS011;11115;46.038;14.612;2023-04-07T10:33:49;7.65;;;2.83;;
21901;SDS011;11115;46.038;14.612;2023-04-07T10:36:23;4.17;;;2.40;;
21901;SDS011;11115;46.038;14.612;2023-04-07T10:41:54;5.27;;;2.60;;
21901;SDS011;11115;46.038;14.612;2023-04-07T10:47:09;2.10;;;1.63;;
21901;SDS011;11115;46.038;14.612;2023-04-07T10:53:11;5.53;;;2.07;;
21901;SDS011;11115;46.038;14.612;2023-04-07T10:55:44;2.30;;;1.58;;
21901;SDS011;11115;46.038;14.612;2023-04-07T10:58:27;2.30;;;1.77;;
21901;SDS011;11115;46.038;14.612;2023-04-07T11:03:54;3.37;;;2.47;;
21901;SDS011;11115;46.038;14.612;2023-04-07T11:06:27;4.00;;;1.93;;
21901;SDS011;11115;46.038;14.612;2023-04-07T11:09:00;3.73;;;1.97;;
21901;SDS011;11115;46.038;14.612;2023-04-07T11:11:35;5.97;;;2.03;;
21901;SDS011;11115;46.038;14.612;2023-04-07T11:14:29;3.60;;;1.70;;
21901;SDS011;11115;46.038;14.612;2023-04-07T11:17:04;2.77;;;1.70;;
21901;SDS011;11115;46.038;14.612;2023-04-07T11:19:52;5.43;;;2.40;;
21901;SDS011;11115;46.038;14.612;2023-04-07T11:22:26;4.27;;;1.97;;
21901;SDS011;11115;46.038;14.612;2023-04-07T11:25:00;2.03;;;1.63;;
21901;SDS011;11115;46.038;14.612;2023-04-07T11:27:44;3.17;;;1.90;;
21901;SDS011;11115;46.038;14.612;2023-04-07T11:30:14;4.47;;;2.83;;
21901;SDS011;11115;46.038;14.612;2023-04-07T11:32:47;2.10;;;1.63;;
21901;SDS011;11115;46.038;14.612;2023-04-07T11:35:22;4.73;;;2.27;;
21901;SDS011;11115;46.038;14.612;2023-04-07T11:38:02;2.80;;;1.80;;
21901;SDS011;11115;46.038;14.612;2023-04-07T11:40:38;2.47;;;1.33;;
21901;SDS011;11115;46.038;14.612;2023-04-07T11:43:17;4.55;;;1.83;;
21901;SDS011;11115;46.038;14.612;2023-04-07T11:46:17;3.10;;;1.63;;
21901;SDS011;11115;46.038;14.612;2023-04-07T11:49:10;3.63;;;1.87;;
21901;SDS011;11115;46.038;14.612;2023-04-07T11:52:06;1.30;;;1.20;;
21901;SDS011;11115;46.038;14.612;2023-04-07T11:54:44;2.17;;;1.23;;
21901;SDS011;11115;46.038;14.612;2023-04-07T11:57:26;3.37;;;1.80;;
21901;SDS011;11115;46.038;14.612;2023-04-07T12:00:07;1.87;;;1.30;;
21901;SDS011;11115;46.038;14.612;2023-04-07T12:02:44;5.03;;;2.13;;
21901;SDS011;11115;46.038;14.612;2023-04-07T12:05:16;2.47;;;1.80;;
21901;SDS011;11115;46.038;14.612;2023-04-07T12:10:25;7.32;;;3.40;;
21901;SDS011;11115;46.038;14.612;2023-04-07T12:13:12;2.25;;;2.00;;
21901;SDS011;11115;46.038;14.612;2023-04-07T12:15:44;1.90;;;1.65;;
21901;SDS011;11115;46.038;14.612;2023-04-07T12:18:19;3.78;;;2.10;;
21901;SDS011;11115;46.038;14.612;2023-04-07T12:20:55;3.38;;;1.60;;
21901;SDS011;11115;46.038;14.612;2023-04-07T12:23:28;2.17;;;1.63;;
21901;SDS011;11115;46.038;14.612;2023-04-07T12:26:14;3.75;;;1.98;;
21901;SDS011;11115;46.038;14.612;2023-04-07T12:28:49;3.10;;;1.55;;
21901;SDS011;11115;46.038;14.612;2023-04-07T12:31:20;3.00;;;1.88;;
21901;SDS011;11115;46.038;14.612;2023-04-07T12:34:03;4.53;;;2.60;;
21901;SDS011;11115;46.038;14.612;2023-04-07T12:36:35;2.70;;;1.90;;
21901;SDS011;11115;46.038;14.612;2023-04-07T12:39:07;1.67;;;1.33;;
21901;SDS011;11115;46.038;14.612;2023-04-07T12:41:38;3.13;;;1.67;;
21901;SDS011;11115;46.038;14.612;2023-04-07T12:44:08;1.80;;;1.30;;
21901;SDS011;11115;46.038;14.612;2023-04-07T12:46:38;2.25;;;1.27;;
21901;SDS011;11115;46.038;14.612;2023-04-07T12:49:11;2.75;;;1.73;;
21901;SDS011;11115;46.038;14.612;2023-04-07T12:51:39;1.95;;;1.52;;
21901;SDS011;11115;46.038;14.612;2023-04-07T12:54:12;2.15;;;1.38;;
21901;SDS011;11115;46.038;14.612;2023-04-07T12:56:41;1.70;;;1.42;;
21901;SDS011;11115;46.038;14.612;2023-04-07T12:59:24;1.75;;;1.40;;
21901;SDS011;11115;46.038;14.612;2023-04-07T13:01:58;2.05;;;1.38;;
21901;SDS011;11115;46.038;14.612;2023-04-07T13:04:32;1.35;;;0.95;;
21901;SDS011;11115;46.038;14.612;2023-04-07T13:07:08;1.60;;;1.40;;
21901;SDS011;11115;46.038;14.612;2023-04-07T13:09:43;1.90;;;1.33;;
21901;SDS011;11115;46.038;14.612;2023-04-07T13:12:15;2.00;;;1.75;;
21901;SDS011;11115;46.038;14.612;2023-04-07T13:14:47;1.02;;;0.80;;
21901;SDS011;11115;46.038;14.612;2023-04-07T13:19:58;1.85;;;1.20;;
21901;SDS011;11115;46.038;14.612;2023-04-07T13:22:29;2.15;;;1.00;;
21901;SDS011;11115;46.038;14.612;2023-04-07T13:25:03;3.20;;;0.80;;
21901;SDS011;11115;46.038;14.612;2023-04-07T13:27:36;1.30;;;0.90;;
21901;SDS011;11115;46.038;14.612;2023-04-07T13:30:12;1.25;;;0.88;;
21901;SDS011;11115;46.038;14.612;2023-04-07T13:32:40;2.63;;;1.88;;
21901;SDS011;11115;46.038;14.612;2023-04-07T13:35:15;2.25;;;1.60;;
21901;SDS011;11115;46.038;14.612;2023-04-07T13:37:48;1.35;;;1.08;;
21901;SDS011;11115;46.038;14.612;2023-04-07T13:40:26;4.15;;;1.42;;
21901;SDS011;11115;46.038;14.612;2023-04-07T13:42:59;1.92;;;1.10;;
21901;SDS011;11115;46.038;14.612;2023-04-07T13:45:31;2.10;;;1.50;;
21901;SDS011;11115;46.038;14.612;2023-04-07T13:48:12;3.47;;;1.08;;
21901;SDS011;11115;46.038;14.612;2023-04-07T13:50:50;3.28;;;1.27;;
21901;SDS011;11115;46.038;14.612;2023-04-07T13:53:25;0.88;;;0.88;;
21901;SDS011;11115;46.038;14.612;2023-04-07T13:55:53;1.45;;;1.27;;
21901;SDS011;11115;46.038;14.612;2023-04-07T13:58:39;0.88;;;0.80;;
21901;SDS011;11115;46.038;14.612;2023-04-07T14:01:18;1.33;;;1.00;;
21901;SDS011;11115;46.038;14.612;2023-04-07T14:03:50;1.00;;;0.90;;
21901;SDS011;11115;46.038;14.612;2023-04-07T14:06:22;0.90;;;0.90;;
21901;SDS011;11115;46.038;14.612;2023-04-07T14:09:06;1.30;;;0.95;;
21901;SDS011;11115;46.038;14.612;2023-04-07T14:11:36;0.93;;;0.77;;
21901;SDS011;11115;46.038;14.612;2023-04-07T14:14:06;1.20;;;1.00;;
21901;SDS011;11115;46.038;14.612;2023-04-07T14:16:42;2.22;;;1.33;;
21901;SDS011;11115;46.038;14.612;2023-04-07T14:19:13;1.17;;;0.80;;
21901;SDS011;11115;46.038;14.612;2023-04-07T14:21:45;1.15;;;1.02;;
21901;SDS011;11115;46.038;14.612;2023-04-07T14:24:16;1.20;;;0.80;;
21901;SDS011;11115;46.038;14.612;2023-04-07T14:26:47;0.75;;;0.65;;
21901;SDS011;11115;46.038;14.612;2023-04-07T14:29:23;0.98;;;0.85;;
21901;SDS011;11115;46.038;14.612;2023-04-07T14:31:52;1.33;;;1.00;;
21901;SDS011;11115;46.038;14.612;2023-04-07T14:34:28;2.65;;;1.67;;
21901;SDS011;11115;46.038;14.612;2023-04-07T14:36:56;9.05;;;2.25;;
21901;SDS011;11115;46.038;14.612;2023-04-07T14:39:42;2.42;;;1.75;;
21901;SDS011;11115;46.038;14.612;2023-04-07T14:42:28;2.25;;;1.83;;
21901;SDS011;11115;46.038;14.612;2023-04-07T14:45:06;3.38;;;2.15;;
21901;SDS011;11115;46.038;14.612;2023-04-07T14:47:37;7.28;;;2.80;;
21901;SDS011;11115;46.038;14.612;2023-04-07T14:50:11;3.78;;;2.22;;
21901;SDS011;11115;46.038;14.612;2023-04-07T14:52:45;4.03;;;2.80;;
21901;SDS011;11115;46.038;14.612;2023-04-07T14:55:16;3.97;;;2.65;;
21901;SDS011;11115;46.038;14.612;2023-04-07T14:57:55;3.13;;;2.35;;
21901;SDS011;11115;46.038;14.612;2023-04-07T15:00:26;11.75;;;2.10;;
21901;SDS011;11115;46.038;14.612;2023-04-07T15:02:59;4.30;;;2.63;;
21901;SDS011;11115;46.038;14.612;2023-04-07T15:05:31;4.65;;;2.92;;
21901;SDS011;11115;46.038;14.612;2023-04-07T15:08:15;5.65;;;2.20;;
21901;SDS011;11115;46.038;14.612;2023-04-07T15:11:04;4.60;;;2.35;;
21901;SDS011;11115;46.038;14.612;2023-04-07T15:13:39;5.68;;;2.30;;
21901;SDS011;11115;46.038;14.612;2023-04-07T15:16:10;4.15;;;2.92;;
21901;SDS011;11115;46.038;14.612;2023-04-07T15:18:41;3.33;;;2.53;;
21901;SDS011;11115;46.038;14.612;2023-04-07T15:21:18;4.25;;;2.78;;
21901;SDS011;11115;46.038;14.612;2023-04-07T15:23:55;3.35;;;2.50;;
21901;SDS011;11115;46.038;14.612;2023-04-07T15:26:29;6.80;;;2.50;;
21901;SDS011;11115;46.038;14.612;2023-04-07T15:29:02;5.53;;;2.55;;
21901;SDS011;11115;46.038;14.612;2023-04-07T15:31:33;4.73;;;2.07;;
21901;SDS011;11115;46.038;14.612;2023-04-07T15:34:07;3.40;;;2.05;;
21901;SDS011;11115;46.038;14.612;2023-04-07T15:36:41;4.05;;;1.92;;
21901;SDS011;11115;46.038;14.612;2023-04-07T15:39:17;5.40;;;4.22;;
21901;SDS011;11115;46.038;14.612;2023-04-07T15:42:03;4.82;;;3.10;;
21901;SDS011;11115;46.038;14.612;2023-04-07T15:44:35;4.28;;;3.00;;
21901;SDS011;11115;46.038;14.612;2023-04-07T15:47:09;4.05;;;2.22;;
21901;SDS011;11115;46.038;14.612;2023-04-07T15:49:40;3.67;;;2.40;;
21901;SDS011;11115;46.038;14.612;2023-04-07T15:52:23;2.28;;;1.98;;
21901;SDS011;11115;46.038;14.612;2023-04-07T15:55:06;5.22;;;2.85;;
21901;SDS011;11115;46.038;14.612;2023-04-07T15:57:40;5.03;;;3.33;;
21901;SDS011;11115;46.038;14.612;2023-04-07T16:00:14;5.22;;;2.72;;